Time;durP1;ratioP1;P1;durP2;ratioP2;P2;SDS_P1;SDS_P2;PMS_P1;PMS_P2;Temp;Humidity;BMP_temperature;BMP_pressure;BME280_temperature;BME280_humidity;BME280_pressure;Samples;Min_cycle;Max_cycle;Signal;HPM_P1;HPM_P2
2023/05/26 00:00:45;;;;;;;13.75;8.13;;;;;;;-140.66;100.00;55571.53;5115853;28;20034;-76
2023/05/26 00:03:31;;;;;;;10.60;7.18;;;;;;;-140.66;100.00;55571.53;5101452;28;20023;-75
2023/05/26 00:06:20;;;;;;;12.55;7.60;;;;;;;-140.66;100.00;55571.53;5102089;28;20378;-76
2023/05/26 00:09:06;;;;;;;9.93;7.43;;;;;;;-140.66;100.00;55571.53;5117063;28;20106;-75
2023/05/26 00:11:52;;;;;;;12.70;7.63;;;;;;;-140.66;100.00;55571.53;5115601;28;20089;-76
2023/05/26 00:14:37;;;;;;;11.27;7.43;;;;;;;-140.66;100.00;55571.53;5116145;28;20058;-76
2023/05/26 00:17:24;;;;;;;9.55;7.57;;;;;;;-140.66;100.00;55571.53;5101238;28;20092;-76
2023/05/26 00:20:11;;;;;;;11.88;7.82;;;;;;;-140.66;100.00;55571.53;5115354;28;20032;-76
2023/05/26 00:22:56;;;;;;;10.13;8.13;;;;;;;-140.66;100.00;55571.53;5101994;28;20073;-76
2023/05/26 00:25:42;;;;;;;8.40;6.97;;;;;;;-140.66;100.00;55571.53;5101005;28;20031;-76
2023/05/26 00:28:28;;;;;;;10.68;7.97;;;;;;;-140.66;100.00;55571.53;5100730;28;20051;-76
2023/05/26 00:31:14;;;;;;;10.82;7.93;;;;;;;-140.66;100.00;55571.53;5115634;28;20107;-75
2023/05/26 00:33:59;;;;;;;12.73;8.40;;;;;;;-140.66;100.00;55571.53;5115981;28;20515;-75
2023/05/26 00:36:46;;;;;;;10.43;7.78;;;;;;;-140.66;100.00;55571.53;5115907;28;20467;-76
2023/05/26 00:39:32;;;;;;;13.15;7.95;;;;;;;-140.66;100.00;55571.53;5117267;28;20439;-76
2023/05/26 00:42:18;;;;;;;9.05;7.95;;;;;;;-140.66;100.00;55571.53;5117554;28;20028;-76
2023/05/26 00:45:04;;;;;;;10.13;7.60;;;;;;;-140.66;100.00;55571.53;5115422;28;20448;-76
2023/05/26 00:47:51;;;;;;;11.35;8.70;;;;;;;-140.66;100.00;55571.53;5115561;28;20460;-79
2023/05/26 00:50:36;;;;;;;13.13;7.72;;;;;;;-140.66;100.00;55571.53;5118440;28;20031;-78
2023/05/26 00:53:23;;;;;;;12.35;7.70;;;;;;;-140.66;100.00;55571.53;5118300;28;20023;-78
2023/05/26 00:56:15;;;;;;;10.95;7.85;;;;;;;-140.66;100.00;55571.53;5100826;28;20122;-77
2023/05/26 00:59:03;;;;;;;12.70;8.00;;;;;;;-140.66;100.00;55571.53;5115646;28;20031;-77
2023/05/26 01:01:51;;;;;;;10.48;8.00;;;;;;;-140.66;100.00;55571.53;5114947;28;20032;-77
2023/05/26 01:04:40;;;;;;;12.32;8.30;;;;;;;-140.66;100.00;55571.53;5101575;28;20406;-77
2023/05/26 01:07:26;;;;;;;9.63;7.28;;;;;;;-140.66;100.00;55571.53;5100666;28;20172;-78
2023/05/26 01:10:11;;;;;;;8.82;7.47;;;;;;;-140.66;100.00;55571.53;5099972;28;20114;-78
2023/05/26 01:13:11;;;;;;;14.27;7.43;;;;;;;-140.66;100.00;55571.53;5100580;28;20104;-77
2023/05/26 01:16:01;;;;;;;14.05;8.68;;;;;;;-140.66;100.00;55571.53;5118957;28;20016;-77
2023/05/26 01:19:28;;;;;;;9.35;7.75;;;;;;;-140.66;100.00;55571.53;5102675;28;20099;-78
2023/05/26 01:22:47;;;;;;;19.95;8.10;;;;;;;-140.66;100.00;55571.53;5115590;28;20558;-79
2023/05/26 01:26:08;;;;;;;11.27;7.88;;;;;;;-140.66;100.00;55571.53;5102069;28;20031;-77
2023/05/26 01:29:03;;;;;;;14.57;8.02;;;;;;;-140.66;100.00;55571.53;5103419;28;20044;-77
2023/05/26 01:31:49;;;;;;;12.18;7.57;;;;;;;-140.66;100.00;55571.53;5116598;28;20024;-78
2023/05/26 01:34:35;;;;;;;13.00;7.45;;;;;;;-140.66;100.00;55571.53;5115252;28;20032;-78
2023/05/26 01:37:21;;;;;;;10.93;7.97;;;;;;;-140.66;100.00;55571.53;5101615;28;20027;-77
2023/05/26 01:40:08;;;;;;;11.73;8.10;;;;;;;-140.66;100.00;55571.53;5099977;28;20035;-78
2023/05/26 01:43:08;;;;;;;10.25;7.68;;;;;;;-140.66;100.00;55571.53;5114420;28;20016;-78
2023/05/26 01:46:05;;;;;;;9.30;7.68;;;;;;;-140.66;100.00;55571.53;5114721;28;20170;-77
2023/05/26 01:48:54;;;;;;;14.07;8.32;;;;;;;-140.66;100.00;55571.53;5116746;28;20015;-78
2023/05/26 01:51:46;;;;;;;11.50;7.32;;;;;;;-140.66;100.00;55571.53;5116745;28;20416;-78
2023/05/26 01:54:46;;;;;;;10.68;8.00;;;;;;;-140.66;100.00;55571.53;5099451;28;20080;-77
2023/05/26 01:57:34;;;;;;;14.00;8.23;;;;;;;-140.66;100.00;55571.53;5099860;28;20028;-78
2023/05/26 02:00:26;;;;;;;10.43;7.80;;;;;;;-140.66;100.00;55571.53;5113914;28;20020;-77
2023/05/26 02:03:13;;;;;;;9.50;7.68;;;;;;;-140.66;100.00;55571.53;5099795;28;20339;-78
2023/05/26 02:05:59;;;;;;;10.85;8.13;;;;;;;-140.66;100.00;55571.53;5114410;28;20444;-78
2023/05/26 02:08:45;;;;;;;8.60;7.70;;;;;;;-140.66;100.00;55571.53;5114753;28;20447;-78
2023/05/26 02:11:31;;;;;;;13.55;7.68;;;;;;;-140.66;100.00;55571.53;5114239;28;20024;-77
2023/05/26 02:14:17;;;;;;;11.25;8.13;;;;;;;-140.66;100.00;55571.53;5116699;28;20104;-77
2023/05/26 02:17:03;;;;;;;12.35;8.35;;;;;;;-140.66;100.00;55571.53;5118695;28;20019;-78
2023/05/26 02:19:49;;;;;;;14.18;8.90;;;;;;;-140.66;100.00;55571.53;5103419;28;20517;-77
2023/05/26 02:22:35;;;;;;;14.70;8.65;;;;;;;-140.66;100.00;55571.53;5103608;28;20458;-77
2023/05/26 02:25:21;;;;;;;13.23;8.52;;;;;;;-140.66;100.00;55571.53;5103299;28;20177;-77
2023/05/26 02:28:07;;;;;;;13.43;8.40;;;;;;;-140.66;100.00;55571.53;5102884;28;20059;-78
2023/05/26 02:30:52;;;;;;;12.55;8.18;;;;;;;-140.66;100.00;55571.53;5118625;28;20093;-77
2023/05/26 02:33:41;;;;;;;15.15;8.95;;;;;;;-140.66;100.00;55571.53;5103910;28;20024;-77
2023/05/26 02:36:27;;;;;;;9.63;8.23;;;;;;;-140.66;100.00;55571.53;5103753;28;20045;-78
2023/05/26 02:39:13;;;;;;;11.30;9.00;;;;;;;-140.66;100.00;55571.53;5119755;28;20028;-78
2023/05/26 02:41:59;;;;;;;11.85;8.32;;;;;;;-140.66;100.00;55571.53;5119552;28;20023;-77
2023/05/26 02:44:44;;;;;;;14.60;9.00;;;;;;;-140.66;100.00;55571.53;5117958;28;20063;-78
2023/05/26 02:47:30;;;;;;;12.35;8.70;;;;;;;-140.66;100.00;55571.53;5102911;28;20023;-78
2023/05/26 02:50:17;;;;;;;14.60;9.77;;;;;;;-140.66;100.00;55571.53;5118968;28;20101;-78
2023/05/26 02:53:03;;;;;;;10.65;8.63;;;;;;;-140.66;100.00;55571.53;5118892;28;20038;-78
2023/05/26 02:55:49;;;;;;;12.88;8.40;;;;;;;-140.66;100.00;55571.53;5120763;28;20030;-78
2023/05/26 02:58:34;;;;;;;12.25;8.90;;;;;;;-140.66;100.00;55571.53;5103885;28;20443;-78
2023/05/26 03:01:21;;;;;;;11.73;8.57;;;;;;;-140.66;100.00;55571.53;5122891;28;20435;-78
2023/05/26 03:04:07;;;;;;;11.82;8.35;;;;;;;-140.66;100.00;55571.53;5123235;28;20016;-76
2023/05/26 03:06:53;;;;;;;15.13;8.77;;;;;;;-140.66;100.00;55571.53;5118823;28;20059;-76
2023/05/26 03:09:39;;;;;;;11.48;9.00;;;;;;;-140.66;100.00;55571.53;5104385;28;20499;-76
2023/05/26 03:12:25;;;;;;;11.60;8.63;;;;;;;-140.66;100.00;55571.53;5124443;28;20038;-75
2023/05/26 03:15:14;;;;;;;14.02;8.80;;;;;;;-140.66;100.00;55571.53;5103535;28;20038;-80
2023/05/26 03:18:00;;;;;;;10.57;9.30;;;;;;;-140.66;100.00;55571.53;5103380;28;20023;-77
2023/05/26 03:20:46;;;;;;;14.18;9.25;;;;;;;-140.66;100.00;55571.53;5104587;28;20034;-77
2023/05/26 03:23:35;;;;;;;10.95;8.95;;;;;;;-140.66;100.00;55571.53;5118074;28;20027;-77
2023/05/26 03:26:22;;;;;;;13.82;9.02;;;;;;;-140.66;100.00;55571.53;5121961;28;20023;-77
2023/05/26 03:29:07;;;;;;;10.60;8.50;;;;;;;-140.66;100.00;55571.53;5118314;28;20047;-77
2023/05/26 03:31:53;;;;;;;15.23;9.50;;;;;;;-140.66;100.00;55571.53;5102360;28;20451;-79
2023/05/26 03:34:39;;;;;;;11.45;8.73;;;;;;;-140.66;100.00;55571.53;5117294;28;20027;-77
2023/05/26 03:37:25;;;;;;;14.27;9.38;;;;;;;-140.66;100.00;55571.53;5117568;28;20091;-78
2023/05/26 03:40:10;;;;;;;15.55;9.23;;;;;;;-140.66;100.00;55571.53;5119237;28;20397;-79
2023/05/26 03:42:56;;;;;;;10.55;7.78;;;;;;;-140.66;100.00;55571.53;5117284;28;20016;-76
2023/05/26 03:45:42;;;;;;;16.02;9.02;;;;;;;-140.66;100.00;55571.53;5116576;28;20063;-76
2023/05/26 03:48:28;;;;;;;13.52;9.25;;;;;;;-140.66;100.00;55571.53;5101283;28;20516;-76
2023/05/26 03:51:14;;;;;;;13.93;8.40;;;;;;;-140.66;100.00;55571.53;5102099;28;20027;-74
2023/05/26 03:54:00;;;;;;;10.45;7.88;;;;;;;-140.66;100.00;55571.53;5116145;28;20024;-76
2023/05/26 03:56:46;;;;;;;10.95;8.57;;;;;;;-140.66;100.00;55571.53;5115664;28;20062;-77
2023/05/26 03:59:32;;;;;;;16.25;8.68;;;;;;;-140.66;100.00;55571.53;5116006;28;20106;-74
2023/05/26 04:02:19;;;;;;;12.55;8.55;;;;;;;-140.66;100.00;55571.53;5101926;28;20024;-78
2023/05/26 04:05:05;;;;;;;12.15;8.73;;;;;;;-140.66;100.00;55571.53;5106707;28;20038;-77
2023/05/26 04:07:51;;;;;;;13.95;9.23;;;;;;;-140.66;100.00;55571.53;5123104;28;20382;-79
2023/05/26 04:10:37;;;;;;;14.55;10.02;;;;;;;-140.66;100.00;55571.53;5130418;28;20108;-77
2023/05/26 04:13:23;;;;;;;11.98;8.80;;;;;;;-140.66;100.00;55571.53;5117742;28;20035;-78
2023/05/26 04:16:09;;;;;;;13.02;8.02;;;;;;;-140.66;100.00;55571.53;5116711;28;20068;-78
2023/05/26 04:18:54;;;;;;;11.27;8.35;;;;;;;-140.66;100.00;55571.53;5106506;28;20042;-77
2023/05/26 04:21:40;;;;;;;11.77;8.20;;;;;;;-140.66;100.00;55571.53;5123224;28;20027;-78
2023/05/26 04:24:27;;;;;;;12.38;9.02;;;;;;;-140.66;100.00;55571.53;5105618;28;20028;-75
2023/05/26 04:27:12;;;;;;;16.33;8.30;;;;;;;-140.66;100.00;55571.53;5107750;28;20147;-81
2023/05/26 04:29:58;;;;;;;13.75;8.98;;;;;;;-140.66;100.00;55571.53;5106690;28;20483;-77
2023/05/26 04:32:44;;;;;;;13.25;8.55;;;;;;;-140.66;100.00;55571.53;5102453;28;20059;-77
2023/05/26 04:35:30;;;;;;;14.70;9.10;;;;;;;-140.66;100.00;55571.53;5101271;28;20027;-77
2023/05/26 04:38:16;;;;;;;12.38;8.27;;;;;;;-140.66;100.00;55571.53;5100552;28;20035;-79
2023/05/26 04:41:04;;;;;;;12.07;8.82;;;;;;;-140.66;100.00;55571.53;5115677;28;20023;-77
2023/05/26 04:43:52;;;;;;;16.83;9.77;;;;;;;-140.66;100.00;55571.53;5101124;28;20030;-80
2023/05/26 04:46:38;;;;;;;10.65;8.43;;;;;;;-140.66;100.00;55571.53;5117918;27;20023;-79
2023/05/26 04:49:25;;;;;;;10.73;8.55;;;;;;;-140.66;100.00;55571.53;5114901;28;20023;-79
2023/05/26 04:52:10;;;;;;;17.02;8.93;;;;;;;-140.66;100.00;55571.53;5100743;28;20084;-79
2023/05/26 04:54:56;;;;;;;13.85;9.00;;;;;;;-140.66;100.00;55571.53;5101295;28;20359;-79
2023/05/26 04:57:43;;;;;;;11.27;8.77;;;;;;;-140.66;100.00;55571.53;5101628;28;20034;-79
2023/05/26 05:00:31;;;;;;;12.75;7.72;;;;;;;-140.66;100.00;55571.53;5114847;28;20027;-77
2023/05/26 05:03:16;;;;;;;11.73;8.35;;;;;;;-140.66;100.00;55571.53;5115228;28;20015;-78
2023/05/26 05:06:02;;;;;;;13.20;8.02;;;;;;;-140.66;100.00;55571.53;5115329;28;20032;-78
2023/05/26 05:08:48;;;;;;;12.00;7.60;;;;;;;-140.66;100.00;55571.53;5114853;28;20023;-77
2023/05/26 05:11:34;;;;;;;13.55;7.68;;;;;;;-140.66;100.00;55571.53;5115816;28;20024;-77
2023/05/26 05:14:20;;;;;;;10.40;7.95;;;;;;;-140.66;100.00;55571.53;5116210;28;20027;-75
2023/05/26 05:17:06;;;;;;;16.92;8.30;;;;;;;-140.66;100.00;55571.53;5114645;28;20128;-75
2023/05/26 05:19:52;;;;;;;17.75;8.40;;;;;;;-140.66;100.00;55571.53;5100337;28;20051;-76
2023/05/26 05:22:37;;;;;;;12.43;8.73;;;;;;;-140.66;100.00;55571.53;5115650;28;20023;-81
2023/05/26 05:25:23;;;;;;;19.20;8.32;;;;;;;-140.66;100.00;55571.53;5115639;28;20418;-88
2023/05/26 05:28:10;;;;;;;12.98;9.27;;;;;;;-140.66;100.00;55571.53;5120252;28;20055;-89
2023/05/26 05:30:56;;;;;;;12.80;9.30;;;;;;;-140.66;100.00;55571.53;5102469;28;20107;-88
2023/05/26 05:33:43;;;;;;;15.30;9.27;;;;;;;-140.66;100.00;55571.53;5114735;28;20031;-85
2023/05/26 05:36:33;;;;;;;18.67;9.57;;;;;;;-140.66;100.00;55571.53;5114966;28;20088;-87
2023/05/26 05:39:18;;;;;;;16.98;9.73;;;;;;;-140.66;100.00;55571.53;5100893;28;20058;-86
2023/05/26 05:42:04;;;;;;;13.27;8.50;;;;;;;-140.66;100.00;55571.53;5114819;28;20028;-86
2023/05/26 05:44:51;;;;;;;12.10;8.13;;;;;;;-140.66;100.00;55571.53;5100608;28;20019;-88
2023/05/26 05:47:37;;;;;;;9.68;7.68;;;;;;;-140.66;100.00;55571.53;5101254;28;20102;-87
2023/05/26 05:50:23;;;;;;;12.90;9.00;;;;;;;-140.66;100.00;55571.53;5107243;28;20156;-88
2023/05/26 05:53:09;;;;;;;12.38;9.48;;;;;;;-140.66;100.00;55571.53;5107306;28;20030;-88
2023/05/26 05:55:54;;;;;;;16.85;9.50;;;;;;;-140.66;100.00;55571.53;5106804;28;20027;-89
2023/05/26 05:58:40;;;;;;;15.02;9.23;;;;;;;-140.66;100.00;55571.53;5120986;28;20088;-85
2023/05/26 06:01:26;;;;;;;15.43;9.13;;;;;;;-140.66;100.00;55571.53;5106721;28;20032;-84
2023/05/26 06:04:12;;;;;;;13.88;8.70;;;;;;;-140.66;100.00;55571.53;5106898;28;20027;-84
2023/05/26 06:06:57;;;;;;;15.77;8.40;;;;;;;-140.66;100.00;55571.53;5115159;28;20030;-84
2023/05/26 06:09:43;;;;;;;12.43;9.43;;;;;;;-140.66;100.00;55571.53;5114935;28;20367;-85
2023/05/26 06:12:29;;;;;;;13.40;9.02;;;;;;;-140.66;100.00;55571.53;5109355;28;20024;-84
2023/05/26 06:15:17;;;;;;;11.55;8.85;;;;;;;-140.66;100.00;55571.53;5126496;28;20077;-85
2023/05/26 06:18:03;;;;;;;13.43;8.65;;;;;;;-140.66;100.00;55571.53;5113448;28;20023;-83
2023/05/26 06:20:50;;;;;;;14.05;9.43;;;;;;;-140.66;100.00;55571.53;5111517;28;20020;-85
2023/05/26 06:23:36;;;;;;;15.98;9.40;;;;;;;-140.66;100.00;55571.53;5112560;28;20024;-85
2023/05/26 06:26:22;;;;;;;11.55;8.35;;;;;;;-140.66;100.00;55571.53;5130049;28;20047;-85
2023/05/26 06:29:11;;;;;;;8.93;7.20;;;;;;;-140.66;100.00;55571.53;5089058;28;20083;-84
2023/05/26 06:31:56;;;;;;;11.18;8.50;;;;;;;-140.66;100.00;55571.53;5084135;28;20021;-85
2023/05/26 06:34:42;;;;;;;13.68;9.48;;;;;;;-140.66;100.00;55571.53;5083336;28;20495;-85
2023/05/26 06:37:28;;;;;;;9.70;8.18;;;;;;;-140.66;100.00;55571.53;5082573;28;20424;-87
2023/05/26 06:40:14;;;;;;;14.95;8.18;;;;;;;-140.66;100.00;55571.53;5079009;28;20043;-87
2023/05/26 06:43:02;;;;;;;12.45;8.70;;;;;;;-140.66;100.00;55571.53;5079044;28;20028;-88
2023/05/26 06:45:48;;;;;;;10.18;8.25;;;;;;;-140.66;100.00;55571.53;5064778;28;20027;-83
2023/05/26 06:48:34;;;;;;;13.77;8.55;;;;;;;-140.66;100.00;55571.53;5065634;28;20029;-80
2023/05/26 06:51:22;;;;;;;12.82;9.40;;;;;;;-140.66;100.00;55571.53;5065258;28;20052;-83
2023/05/26 06:54:08;;;;;;;11.00;8.00;;;;;;;-140.66;100.00;55571.53;5079310;28;20134;-80
2023/05/26 06:56:54;;;;;;;16.25;8.88;;;;;;;-140.66;100.00;55571.53;5065875;28;20024;-81
2023/05/26 06:59:43;;;;;;;13.75;8.75;;;;;;;-140.66;100.00;55571.53;5063100;28;20024;-82
2023/05/26 07:02:28;;;;;;;12.57;7.95;;;;;;;-140.66;100.00;55571.53;5057392;28;20035;-80
2023/05/26 07:05:14;;;;;;;11.82;8.93;;;;;;;-140.66;100.00;55571.53;5080200;28;20021;-83
2023/05/26 07:08:00;;;;;;;11.90;8.43;;;;;;;-140.66;100.00;55571.53;5081156;28;20039;-80
2023/05/26 07:10:46;;;;;;;9.73;7.47;;;;;;;-140.66;100.00;55571.53;5065836;28;20035;-82
2023/05/26 07:13:31;;;;;;;12.70;8.57;;;;;;;-140.66;100.00;55571.53;5080100;28;20115;-83
2023/05/26 07:16:17;;;;;;;12.52;7.88;;;;;;;-140.66;100.00;55571.53;5065171;28;20028;-83
2023/05/26 07:19:03;;;;;;;12.35;8.10;;;;;;;-140.66;100.00;55571.53;5081946;28;20039;-84
2023/05/26 07:21:49;;;;;;;17.08;9.07;;;;;;;-140.66;100.00;55571.53;5082390;28;20464;-84
2023/05/26 07:24:35;;;;;;;11.15;8.13;;;;;;;-140.66;100.00;55571.53;5069526;28;20024;-83
2023/05/26 07:27:20;;;;;;;12.98;8.63;;;;;;;-140.66;100.00;55571.53;5078707;28;20052;-81
2023/05/26 07:30:11;;;;;;;10.02;6.80;;;;;;;-140.66;100.00;55571.53;5091064;28;20031;-83
2023/05/26 07:32:57;;;;;;;11.80;6.85;;;;;;;-140.66;100.00;55571.53;5087073;28;20046;-83
2023/05/26 07:35:43;;;;;;;9.63;6.45;;;;;;;-140.66;100.00;55571.53;5105979;28;20326;-81
2023/05/26 07:38:30;;;;;;;15.00;6.68;;;;;;;-140.66;100.00;55571.53;5098855;28;20020;-79
2023/05/26 07:41:16;;;;;;;12.18;7.40;;;;;;;-140.66;100.00;55571.53;5084125;28;20024;-80
2023/05/26 07:44:02;;;;;;;15.63;6.72;;;;;;;-140.66;100.00;55571.53;5096395;28;20325;-80
2023/05/26 07:46:48;;;;;;;16.70;7.00;;;;;;;-140.66;100.00;55571.53;5098087;28;20042;-80
2023/05/26 07:49:33;;;;;;;9.02;5.97;;;;;;;-140.66;100.00;55571.53;5095664;28;20450;-81
2023/05/26 07:52:19;;;;;;;10.82;5.95;;;;;;;-140.66;100.00;55571.53;5083799;28;20020;-79
2023/05/26 07:55:05;;;;;;;9.35;6.78;;;;;;;-140.66;100.00;55571.53;5083455;28;20027;-81
2023/05/26 07:57:51;;;;;;;7.30;6.00;;;;;;;-140.66;100.00;55571.53;5097268;28;20020;-81
2023/05/26 08:00:37;;;;;;;7.60;5.82;;;;;;;-140.66;100.00;55571.53;5083312;28;20031;-80
2023/05/26 08:03:25;;;;;;;11.90;7.05;;;;;;;-140.66;100.00;55571.53;5086292;28;20024;-80
2023/05/26 08:06:11;;;;;;;10.63;6.57;;;;;;;-140.66;100.00;55571.53;5099860;28;20089;-79
2023/05/26 08:08:57;;;;;;;10.93;7.00;;;;;;;-140.66;100.00;55571.53;5084301;28;20020;-80
2023/05/26 08:11:43;;;;;;;9.25;6.50;;;;;;;-140.66;100.00;55571.53;5081756;28;20086;-81
2023/05/26 08:14:29;;;;;;;9.32;6.25;;;;;;;-140.66;100.00;55571.53;5097835;28;20052;-81
2023/05/26 08:17:15;;;;;;;9.75;5.78;;;;;;;-140.66;100.00;55571.53;5100985;28;20036;-80
2023/05/26 08:20:00;;;;;;;9.50;6.40;;;;;;;-140.66;100.00;55571.53;5100540;28;20070;-80
2023/05/26 08:22:46;;;;;;;9.00;5.53;;;;;;;-140.66;100.00;55571.53;5102469;28;20020;-81
2023/05/26 08:25:32;;;;;;;6.97;5.65;;;;;;;-140.66;100.00;55571.53;5101098;28;20032;-81
2023/05/26 08:28:18;;;;;;;18.77;6.25;;;;;;;-140.66;100.00;55571.53;5085944;28;20048;-81
2023/05/26 08:31:04;;;;;;;10.40;5.32;;;;;;;-140.66;100.00;55571.53;5100428;28;20024;-80
2023/05/26 08:33:50;;;;;;;24.67;5.70;;;;;;;-140.66;100.00;55571.53;5081053;28;20024;-82
2023/05/26 08:36:35;;;;;;;10.90;5.30;;;;;;;-140.66;100.00;55571.53;5081322;28;20028;-80
2023/05/26 08:39:21;;;;;;;7.13;5.07;;;;;;;-140.66;100.00;55571.53;5095080;28;20055;-80
2023/05/26 08:42:12;;;;;;;7.70;5.43;;;;;;;-140.66;100.00;55571.53;5094626;28;20346;-81
2023/05/26 08:44:58;;;;;;;8.18;5.30;;;;;;;-140.66;100.00;55571.53;5081531;28;20024;-79
2023/05/26 08:47:44;;;;;;;9.38;5.00;;;;;;;-140.66;100.00;55571.53;5080863;28;20464;-80
2023/05/26 08:50:33;;;;;;;7.03;4.97;;;;;;;-140.66;100.00;55571.53;5081602;28;20043;-80
2023/05/26 08:53:20;;;;;;;9.80;4.95;;;;;;;-140.66;100.00;55571.53;5080983;28;20039;-80
2023/05/26 08:56:07;;;;;;;10.23;4.88;;;;;;;-140.66;100.00;55571.53;5079966;28;20042;-80
2023/05/26 08:58:54;;;;;;;7.13;4.90;;;;;;;-140.66;100.00;55571.53;5094011;28;20107;-81
2023/05/26 09:01:40;;;;;;;7.18;4.32;;;;;;;-140.66;100.00;55571.53;5095704;28;20034;-80
2023/05/26 09:04:26;;;;;;;6.60;3.53;;;;;;;-140.66;100.00;55571.53;5080282;28;20023;-81
2023/05/26 09:07:11;;;;;;;6.57;3.72;;;;;;;-140.66;100.00;55571.53;5082070;28;20091;-82
2023/05/26 09:10:31;;;;;;;10.82;4.38;;;;;;;-140.66;100.00;55571.53;5095723;28;20071;-81
2023/05/26 09:13:18;;;;;;;11.02;4.28;;;;;;;-140.66;100.00;55571.53;5072278;28;20180;-82
2023/05/26 09:16:12;;;;;;;12.98;6.45;;;;;;;-140.66;100.00;55571.53;5079525;28;20020;-82
2023/05/26 09:19:00;;;;;;;6.00;4.75;;;;;;;-140.66;100.00;55571.53;5094527;28;20508;-82
2023/05/26 09:21:50;;;;;;;9.63;5.40;;;;;;;-140.66;100.00;55571.53;5094285;28;20120;-82
2023/05/26 09:24:47;;;;;;;18.27;6.65;;;;;;;-140.66;100.00;55571.53;5094377;28;20034;-82
2023/05/26 09:27:34;;;;;;;7.30;5.20;;;;;;;-140.66;100.00;55571.53;5094757;28;20048;-82
2023/05/26 09:30:20;;;;;;;8.90;5.55;;;;;;;-140.66;100.00;55571.53;5095248;28;20028;-82
2023/05/26 09:33:09;;;;;;;8.32;5.93;;;;;;;-140.66;100.00;55571.53;5094234;28;20109;-82
2023/05/26 09:35:55;;;;;;;8.63;5.25;;;;;;;-140.66;100.00;55571.53;5079631;28;20024;-81
2023/05/26 09:38:42;;;;;;;9.25;5.22;;;;;;;-140.66;100.00;55571.53;5081061;28;20416;-81
2023/05/26 09:41:38;;;;;;;11.02;5.72;;;;;;;-140.66;100.00;55571.53;5094907;28;20060;-81
2023/05/26 09:44:24;;;;;;;9.85;5.22;;;;;;;-140.66;100.00;55571.53;5073776;28;20455;-81
2023/05/26 09:47:18;;;;;;;9.98;5.43;;;;;;;-140.66;100.00;55571.53;5079326;28;20034;-81
2023/05/26 09:50:05;;;;;;;8.30;5.07;;;;;;;-140.66;100.00;55571.53;5094980;28;20039;-81
2023/05/26 09:52:51;;;;;;;7.13;4.53;;;;;;;-140.66;100.00;55571.53;5093412;28;20032;-82
2023/05/26 09:55:38;;;;;;;7.20;4.70;;;;;;;-140.66;100.00;55571.53;5093631;28;20145;-82
2023/05/26 09:58:25;;;;;;;12.63;4.60;;;;;;;-140.66;100.00;55571.53;5073161;28;20114;-81
2023/05/26 10:01:10;;;;;;;9.00;4.55;;;;;;;-140.66;100.00;55571.53;5095018;28;20024;-82
2023/05/26 10:03:57;;;;;;;11.75;4.50;;;;;;;-140.66;100.00;55571.53;5079074;28;20024;-82
2023/05/26 10:06:44;;;;;;;10.10;4.80;;;;;;;-140.66;100.00;55571.53;5078614;28;20032;-81
2023/05/26 10:09:35;;;;;;;9.05;4.72;;;;;;;-140.66;100.00;55571.53;5095564;28;20032;-81
2023/05/26 10:12:26;;;;;;;12.50;4.55;;;;;;;-140.66;100.00;55571.53;5093268;28;20031;-81
2023/05/26 10:15:12;;;;;;;8.10;4.88;;;;;;;-140.66;100.00;55571.53;5093988;28;20464;-80
2023/05/26 10:18:01;;;;;;;10.00;5.05;;;;;;;-140.66;100.00;55571.53;5095820;28;20499;-81
2023/05/26 10:20:50;;;;;;;5.90;4.82;;;;;;;-140.66;100.00;55571.53;5093198;28;20024;-82
2023/05/26 10:23:46;;;;;;;7.30;4.95;;;;;;;-140.66;100.00;55571.53;5080819;28;20392;-81
2023/05/26 10:27:06;;;;;;;11.10;5.10;;;;;;;-140.66;100.00;55571.53;5095330;28;20038;-80
2023/05/26 10:30:05;;;;;;;10.35;5.30;;;;;;;-140.66;100.00;55571.53;5095170;28;20082;-81
2023/05/26 10:32:55;;;;;;;6.95;4.80;;;;;;;-140.66;100.00;55571.53;5096482;28;20470;-81
2023/05/26 10:35:55;;;;;;;7.32;5.38;;;;;;;-140.66;100.00;55571.53;5108666;28;20062;-79
2023/05/26 10:38:48;;;;;;;7.65;5.30;;;;;;;-140.66;100.00;55571.53;5094339;28;20039;-79
2023/05/26 10:41:38;;;;;;;12.68;5.45;;;;;;;-140.66;100.00;55571.53;5092685;28;20020;-79
2023/05/26 10:44:53;;;;;;;12.30;5.18;;;;;;;-140.66;100.00;55571.53;5102684;28;20345;-81
2023/05/26 10:47:47;;;;;;;8.10;5.82;;;;;;;-140.66;100.00;55571.53;5084636;28;20107;-80
2023/05/26 10:51:03;;;;;;;10.77;5.50;;;;;;;-140.66;100.00;55571.53;5097786;28;20444;-80
2023/05/26 10:53:51;;;;;;;8.05;5.70;;;;;;;-140.66;100.00;55571.53;5083597;28;20036;-81
2023/05/26 10:56:43;;;;;;;12.82;5.90;;;;;;;-140.66;100.00;55571.53;5083777;28;20035;-80
2023/05/26 10:59:33;;;;;;;7.15;5.18;;;;;;;-140.66;100.00;55571.53;5097907;28;20055;-81
2023/05/26 11:02:20;;;;;;;6.70;5.03;;;;;;;-140.66;100.00;55571.53;5083182;28;20023;-81
2023/05/26 11:05:32;;;;;;;10.35;5.05;;;;;;;-140.66;100.00;55571.53;5084193;28;20149;-81
2023/05/26 11:08:20;;;;;;;11.90;5.65;;;;;;;-140.66;100.00;55571.53;5083771;28;20040;-80
2023/05/26 11:11:11;;;;;;;7.63;5.30;;;;;;;-140.66;100.00;55571.53;5098053;28;20035;-80
2023/05/26 11:14:04;;;;;;;9.45;6.70;;;;;;;-140.66;100.00;55571.53;5104648;28;20058;-80
2023/05/26 11:16:51;;;;;;;8.65;5.93;;;;;;;-140.66;100.00;55571.53;5101993;28;20024;-81
2023/05/26 11:19:38;;;;;;;10.55;5.28;;;;;;;-140.66;100.00;55571.53;5085976;28;20123;-81
2023/05/26 11:22:24;;;;;;;12.48;5.68;;;;;;;-140.66;100.00;55571.53;5108295;28;20032;-81
2023/05/26 11:25:10;;;;;;;8.05;5.10;;;;;;;-140.66;100.00;55571.53;5082954;28;20059;-79
2023/05/26 11:27:56;;;;;;;11.15;5.45;;;;;;;-140.66;100.00;55571.53;5096885;28;20048;-81
2023/05/26 11:30:42;;;;;;;8.32;5.10;;;;;;;-140.66;100.00;55571.53;5082548;28;20376;-81
2023/05/26 11:33:27;;;;;;;12.05;5.65;;;;;;;-140.66;100.00;55571.53;5082423;28;20518;-81
2023/05/26 11:36:15;;;;;;;6.00;4.68;;;;;;;-140.66;100.00;55571.53;5082550;28;20111;-82
2023/05/26 11:39:01;;;;;;;12.98;5.65;;;;;;;-140.66;100.00;55571.53;5096621;28;20460;-81
2023/05/26 11:41:49;;;;;;;12.43;5.60;;;;;;;-140.66;100.00;55571.53;5097139;28;20094;-81
2023/05/26 11:44:35;;;;;;;8.57;5.75;;;;;;;-140.66;100.00;55571.53;5080703;28;20337;-81
2023/05/26 11:47:22;;;;;;;10.60;5.00;;;;;;;-140.66;100.00;55571.53;5082127;28;20063;-81
2023/05/26 11:50:09;;;;;;;7.00;4.90;;;;;;;-140.66;100.00;55571.53;5096797;28;20431;-81
2023/05/26 11:52:54;;;;;;;7.57;5.10;;;;;;;-140.66;100.00;55571.53;5080435;28;20499;-81
2023/05/26 11:55:40;;;;;;;6.72;4.88;;;;;;;-140.66;100.00;55571.53;5082574;28;20028;-81
2023/05/26 11:58:26;;;;;;;7.10;4.70;;;;;;;-140.66;100.00;55571.53;5081335;28;20067;-81
2023/05/26 12:01:13;;;;;;;7.13;4.88;;;;;;;-140.66;100.00;55571.53;5095974;28;20055;-81
2023/05/26 12:04:00;;;;;;;15.32;5.10;;;;;;;-140.66;100.00;55571.53;5095994;28;20478;-81
2023/05/26 12:06:45;;;;;;;7.05;4.60;;;;;;;-140.66;100.00;55571.53;5082932;28;20035;-81
2023/05/26 12:09:31;;;;;;;5.35;4.32;;;;;;;-140.66;100.00;55571.53;5081793;28;20024;-82
2023/05/26 12:12:17;;;;;;;7.93;4.78;;;;;;;-140.66;100.00;55571.53;5096198;28;20066;-81
2023/05/26 12:15:05;;;;;;;7.75;4.50;;;;;;;-140.66;100.00;55571.53;5080189;28;20039;-81
2023/05/26 12:17:52;;;;;;;6.25;4.55;;;;;;;-140.66;100.00;55571.53;5079973;28;20397;-82
2023/05/26 12:20:40;;;;;;;12.57;5.22;;;;;;;-140.66;100.00;55571.53;5080659;28;20032;-81
2023/05/26 12:23:26;;;;;;;8.32;4.63;;;;;;;-140.66;100.00;55571.53;5094605;28;20059;-81
2023/05/26 12:26:33;;;;;;;7.63;4.50;;;;;;;-140.66;100.00;55571.53;5096046;28;20036;-81
2023/05/26 12:29:21;;;;;;;8.10;4.68;;;;;;;-140.66;100.00;55571.53;5095710;28;20051;-81
2023/05/26 12:32:11;;;;;;;5.57;4.80;;;;;;;-140.66;100.00;55571.53;5080405;28;20085;-82
2023/05/26 12:34:56;;;;;;;7.50;5.05;;;;;;;-140.66;100.00;55571.53;5080722;28;20023;-81
2023/05/26 12:37:42;;;;;;;10.85;5.05;;;;;;;-140.66;100.00;55571.53;5095790;28;20028;-81